sensor_id;sensor_type;location;lat;lon;timestamp;P1;durP1;ratioP1;P2;durP2;ratioP2
23044;SDS011;11690;51.716;23.066;2023-08-24T00:01:44;10.20;;;4.05;;
23044;SDS011;11690;51.716;23.066;2023-08-24T00:04:11;9.35;;;2.90;;
23044;SDS011;11690;51.716;23.066;2023-08-24T00:06:38;3.97;;;2.67;;
23044;SDS011;11690;51.716;23.066;2023-08-24T00:09:05;4.57;;;2.97;;
23044;SDS011;11690;51.716;23.066;2023-08-24T00:11:32;4.10;;;2.30;;
23044;SDS011;11690;51.716;23.066;2023-08-24T00:13:59;8.15;;;2.60;;
23044;SDS011;11690;51.716;23.066;2023-08-24T00:16:27;5.60;;;2.50;;
23044;SDS011;11690;51.716;23.066;2023-08-24T00:18:54;10.20;;;2.30;;
23044;SDS011;11690;51.716;23.066;2023-08-24T00:21:21;4.50;;;2.30;;
23044;SDS011;11690;51.716;23.066;2023-08-24T00:23:50;4.57;;;2.30;;
23044;SDS011;11690;51.716;23.066;2023-08-24T00:26:17;8.02;;;2.40;;
23044;SDS011;11690;51.716;23.066;2023-08-24T00:28:44;6.07;;;2.78;;
23044;SDS011;11690;51.716;23.066;2023-08-24T00:31:12;11.63;;;3.25;;
23044;SDS011;11690;51.716;23.066;2023-08-24T00:33:41;5.32;;;2.72;;
23044;SDS011;11690;51.716;23.066;2023-08-24T00:36:09;7.70;;;3.13;;
23044;SDS011;11690;51.716;23.066;2023-08-24T00:38:37;7.30;;;2.83;;
23044;SDS011;11690;51.716;23.066;2023-08-24T00:41:05;5.20;;;1.92;;
23044;SDS011;11690;51.716;23.066;2023-08-24T00:43:32;6.20;;;2.05;;
23044;SDS011;11690;51.716;23.066;2023-08-24T00:45:59;9.73;;;2.30;;
23044;SDS011;11690;51.716;23.066;2023-08-24T00:48:27;5.43;;;2.45;;
23044;SDS011;11690;51.716;23.066;2023-08-24T00:50:57;4.03;;;2.38;;
23044;SDS011;11690;51.716;23.066;2023-08-24T00:53:26;4.90;;;2.00;;
23044;SDS011;11690;51.716;23.066;2023-08-24T00:55:54;7.80;;;2.72;;
23044;SDS011;11690;51.716;23.066;2023-08-24T00:58:21;3.92;;;2.20;;
23044;SDS011;11690;51.716;23.066;2023-08-24T01:00:49;5.05;;;2.63;;
23044;SDS011;11690;51.716;23.066;2023-08-24T01:03:17;4.90;;;2.25;;
23044;SDS011;11690;51.716;23.066;2023-08-24T01:05:45;8.00;;;2.28;;
23044;SDS011;11690;51.716;23.066;2023-08-24T01:08:12;3.67;;;2.15;;
23044;SDS011;11690;51.716;23.066;2023-08-24T01:13:27;7.05;;;2.20;;
23044;SDS011;11690;51.716;23.066;2023-08-24T01:16:06;4.88;;;2.28;;
23044;SDS011;11690;51.716;23.066;2023-08-24T01:18:37;3.60;;;1.98;;
23044;SDS011;11690;51.716;23.066;2023-08-24T01:21:05;4.22;;;2.20;;
23044;SDS011;11690;51.716;23.066;2023-08-24T01:26:14;4.50;;;2.35;;
23044;SDS011;11690;51.716;23.066;2023-08-24T01:28:44;6.28;;;2.70;;
23044;SDS011;11690;51.716;23.066;2023-08-24T01:31:15;7.97;;;2.30;;
23044;SDS011;11690;51.716;23.066;2023-08-24T01:33:44;6.75;;;2.60;;
23044;SDS011;11690;51.716;23.066;2023-08-24T01:36:12;4.63;;;2.20;;
23044;SDS011;11690;51.716;23.066;2023-08-24T01:38:40;3.30;;;2.45;;
23044;SDS011;11690;51.716;23.066;2023-08-24T01:43:55;4.03;;;2.50;;
23044;SDS011;11690;51.716;23.066;2023-08-24T01:46:24;6.03;;;2.83;;
23044;SDS011;11690;51.716;23.066;2023-08-24T01:48:52;6.15;;;2.80;;
23044;SDS011;11690;51.716;23.066;2023-08-24T01:51:20;3.75;;;1.90;;
23044;SDS011;11690;51.716;23.066;2023-08-24T01:53:47;6.97;;;2.28;;
23044;SDS011;11690;51.716;23.066;2023-08-24T01:56:15;7.80;;;2.05;;
23044;SDS011;11690;51.716;23.066;2023-08-24T01:58:43;6.35;;;2.05;;
23044;SDS011;11690;51.716;23.066;2023-08-24T02:01:10;3.72;;;2.20;;
23044;SDS011;11690;51.716;23.066;2023-08-24T02:03:37;3.88;;;1.95;;
23044;SDS011;11690;51.716;23.066;2023-08-24T02:06:07;3.85;;;2.30;;
23044;SDS011;11690;51.716;23.066;2023-08-24T02:08:35;3.55;;;2.17;;
23044;SDS011;11690;51.716;23.066;2023-08-24T02:11:03;6.78;;;2.15;;
23044;SDS011;11690;51.716;23.066;2023-08-24T02:13:31;5.10;;;1.77;;
23044;SDS011;11690;51.716;23.066;2023-08-24T02:16:05;4.20;;;1.88;;
23044;SDS011;11690;51.716;23.066;2023-08-24T02:18:35;8.38;;;2.60;;
23044;SDS011;11690;51.716;23.066;2023-08-24T02:21:07;5.10;;;2.50;;
23044;SDS011;11690;51.716;23.066;2023-08-24T02:23:35;6.15;;;2.17;;
23044;SDS011;11690;51.716;23.066;2023-08-24T02:26:02;6.65;;;2.20;;
23044;SDS011;11690;51.716;23.066;2023-08-24T02:28:32;3.20;;;2.15;;
23044;SDS011;11690;51.716;23.066;2023-08-24T02:31:02;8.60;;;2.38;;
23044;SDS011;11690;51.716;23.066;2023-08-24T02:33:30;5.28;;;2.13;;
23044;SDS011;11690;51.716;23.066;2023-08-24T02:35:57;3.67;;;2.00;;
23044;SDS011;11690;51.716;23.066;2023-08-24T02:38:25;3.33;;;2.17;;
23044;SDS011;11690;51.716;23.066;2023-08-24T02:41:01;5.75;;;2.17;;
23044;SDS011;11690;51.716;23.066;2023-08-24T02:43:30;5.97;;;2.28;;
23044;SDS011;11690;51.716;23.066;2023-08-24T02:46:01;3.13;;;2.00;;
23044;SDS011;11690;51.716;23.066;2023-08-24T02:48:30;4.15;;;2.03;;
23044;SDS011;11690;51.716;23.066;2023-08-24T02:50:58;6.82;;;2.00;;
23044;SDS011;11690;51.716;23.066;2023-08-24T02:53:26;3.83;;;2.00;;
23044;SDS011;11690;51.716;23.066;2023-08-24T02:55:54;6.00;;;1.92;;
23044;SDS011;11690;51.716;23.066;2023-08-24T02:58:22;3.00;;;2.28;;
23044;SDS011;11690;51.716;23.066;2023-08-24T03:00:49;4.75;;;2.22;;
23044;SDS011;11690;51.716;23.066;2023-08-24T03:03:16;6.70;;;2.03;;
23044;SDS011;11690;51.716;23.066;2023-08-24T03:05:56;3.45;;;1.80;;
23044;SDS011;11690;51.716;23.066;2023-08-24T03:08:31;3.58;;;1.80;;
23044;SDS011;11690;51.716;23.066;2023-08-24T03:10:59;5.25;;;2.00;;
23044;SDS011;11690;51.716;23.066;2023-08-24T03:13:27;4.15;;;1.73;;
23044;SDS011;11690;51.716;23.066;2023-08-24T03:15:56;2.95;;;2.13;;
23044;SDS011;11690;51.716;23.066;2023-08-24T03:18:27;13.75;;;3.47;;
23044;SDS011;11690;51.716;23.066;2023-08-24T03:20:55;7.10;;;3.30;;
23044;SDS011;11690;51.716;23.066;2023-08-24T03:23:22;5.63;;;3.00;;
23044;SDS011;11690;51.716;23.066;2023-08-24T03:25:49;7.90;;;3.25;;
23044;SDS011;11690;51.716;23.066;2023-08-24T03:28:16;4.03;;;2.28;;
23044;SDS011;11690;51.716;23.066;2023-08-24T03:30:47;6.88;;;3.50;;
23044;SDS011;11690;51.716;23.066;2023-08-24T03:33:17;5.25;;;3.35;;
23044;SDS011;11690;51.716;23.066;2023-08-24T03:35:44;7.18;;;3.47;;
23044;SDS011;11690;51.716;23.066;2023-08-24T03:38:11;10.30;;;3.97;;
23044;SDS011;11690;51.716;23.066;2023-08-24T03:40:38;5.90;;;3.17;;
23044;SDS011;11690;51.716;23.066;2023-08-24T03:43:06;9.65;;;3.63;;
23044;SDS011;11690;51.716;23.066;2023-08-24T03:45:33;10.13;;;3.83;;
23044;SDS011;11690;51.716;23.066;2023-08-24T03:48:00;5.32;;;3.00;;
23044;SDS011;11690;51.716;23.066;2023-08-24T03:50:27;5.03;;;3.20;;
23044;SDS011;11690;51.716;23.066;2023-08-24T03:52:55;4.13;;;2.85;;
23044;SDS011;11690;51.716;23.066;2023-08-24T03:55:22;6.35;;;3.10;;
23044;SDS011;11690;51.716;23.066;2023-08-24T03:57:50;6.70;;;3.88;;
23044;SDS011;11690;51.716;23.066;2023-08-24T04:00:18;4.80;;;3.28;;
23044;SDS011;11690;51.716;23.066;2023-08-24T04:02:48;5.63;;;3.80;;
23044;SDS011;11690;51.716;23.066;2023-08-24T04:05:22;5.15;;;3.92;;
23044;SDS011;11690;51.716;23.066;2023-08-24T04:07:49;5.00;;;3.47;;
23044;SDS011;11690;51.716;23.066;2023-08-24T04:10:16;6.70;;;3.55;;
23044;SDS011;11690;51.716;23.066;2023-08-24T04:12:44;5.13;;;3.50;;
23044;SDS011;11690;51.716;23.066;2023-08-24T04:15:11;5.43;;;3.45;;
23044;SDS011;11690;51.716;23.066;2023-08-24T04:17:38;6.03;;;4.00;;
23044;SDS011;11690;51.716;23.066;2023-08-24T04:20:09;6.78;;;3.97;;
23044;SDS011;11690;51.716;23.066;2023-08-24T04:22:36;8.32;;;4.00;;
23044;SDS011;11690;51.716;23.066;2023-08-24T04:25:04;5.13;;;3.92;;
23044;SDS011;11690;51.716;23.066;2023-08-24T04:27:32;5.80;;;4.07;;
23044;SDS011;11690;51.716;23.066;2023-08-24T04:29:59;6.05;;;3.63;;
23044;SDS011;11690;51.716;23.066;2023-08-24T04:32:27;7.10;;;3.63;;
23044;SDS011;11690;51.716;23.066;2023-08-24T04:34:54;6.93;;;4.20;;
23044;SDS011;11690;51.716;23.066;2023-08-24T04:37:22;5.25;;;3.88;;
23044;SDS011;11690;51.716;23.066;2023-08-24T04:39:49;5.10;;;3.72;;
23044;SDS011;11690;51.716;23.066;2023-08-24T04:42:16;5.38;;;3.70;;
23044;SDS011;11690;51.716;23.066;2023-08-24T04:44:43;8.45;;;4.28;;
23044;SDS011;11690;51.716;23.066;2023-08-24T04:47:11;6.53;;;4.95;;
23044;SDS011;11690;51.716;23.066;2023-08-24T04:49:38;10.48;;;4.03;;
23044;SDS011;11690;51.716;23.066;2023-08-24T04:52:05;6.07;;;3.85;;
23044;SDS011;11690;51.716;23.066;2023-08-24T04:54:32;9.45;;;3.80;;
23044;SDS011;11690;51.716;23.066;2023-08-24T04:57:00;5.88;;;3.83;;
23044;SDS011;11690;51.716;23.066;2023-08-24T04:59:27;6.20;;;3.63;;
23044;SDS011;11690;51.716;23.066;2023-08-24T05:01:54;7.38;;;3.85;;
23044;SDS011;11690;51.716;23.066;2023-08-24T05:04:22;5.72;;;3.42;;
23044;SDS011;11690;51.716;23.066;2023-08-24T05:06:49;8.10;;;3.35;;
23044;SDS011;11690;51.716;23.066;2023-08-24T05:09:16;4.38;;;3.15;;
23044;SDS011;11690;51.716;23.066;2023-08-24T05:11:43;4.90;;;3.22;;
23044;SDS011;11690;51.716;23.066;2023-08-24T05:14:10;7.18;;;3.47;;
23044;SDS011;11690;51.716;23.066;2023-08-24T05:16:37;9.35;;;3.42;;
23044;SDS011;11690;51.716;23.066;2023-08-24T05:19:04;5.50;;;3.30;;
23044;SDS011;11690;51.716;23.066;2023-08-24T05:21:32;5.00;;;3.25;;
23044;SDS011;11690;51.716;23.066;2023-08-24T05:23:59;5.88;;;3.00;;
23044;SDS011;11690;51.716;23.066;2023-08-24T05:26:26;6.90;;;3.38;;
23044;SDS011;11690;51.716;23.066;2023-08-24T05:28:53;5.88;;;3.08;;
23044;SDS011;11690;51.716;23.066;2023-08-24T05:31:20;7.07;;;3.75;;
23044;SDS011;11690;51.716;23.066;2023-08-24T05:33:48;5.03;;;3.85;;
23044;SDS011;11690;51.716;23.066;2023-08-24T05:36:15;4.88;;;3.53;;
23044;SDS011;11690;51.716;23.066;2023-08-24T05:38:42;9.02;;;3.40;;
23044;SDS011;11690;51.716;23.066;2023-08-24T05:41:29;6.60;;;3.75;;
23044;SDS011;11690;51.716;23.066;2023-08-24T05:43:56;5.15;;;3.58;;
23044;SDS011;11690;51.716;23.066;2023-08-24T05:46:24;9.32;;;3.88;;
23044;SDS011;11690;51.716;23.066;2023-08-24T05:48:51;8.82;;;4.25;;
23044;SDS011;11690;51.716;23.066;2023-08-24T05:51:18;8.25;;;3.92;;
23044;SDS011;11690;51.716;23.066;2023-08-24T05:53:45;9.57;;;3.15;;
23044;SDS011;11690;51.716;23.066;2023-08-24T05:56:12;6.82;;;3.25;;
23044;SDS011;11690;51.716;23.066;2023-08-24T05:58:39;6.63;;;3.83;;
23044;SDS011;11690;51.716;23.066;2023-08-24T06:01:07;5.00;;;3.47;;
23044;SDS011;11690;51.716;23.066;2023-08-24T06:03:34;5.78;;;3.40;;
23044;SDS011;11690;51.716;23.066;2023-08-24T06:06:02;6.53;;;3.85;;
23044;SDS011;11690;51.716;23.066;2023-08-24T06:08:30;7.18;;;3.47;;
23044;SDS011;11690;51.716;23.066;2023-08-24T06:10:58;10.05;;;3.50;;
23044;SDS011;11690;51.716;23.066;2023-08-24T06:13:25;6.05;;;3.40;;
23044;SDS011;11690;51.716;23.066;2023-08-24T06:15:52;6.93;;;3.17;;
23044;SDS011;11690;51.716;23.066;2023-08-24T06:18:21;10.50;;;3.63;;
23044;SDS011;11690;51.716;23.066;2023-08-24T06:20:48;6.72;;;2.85;;
23044;SDS011;11690;51.716;23.066;2023-08-24T06:23:19;7.22;;;3.05;;
23044;SDS011;11690;51.716;23.066;2023-08-24T06:25:46;8.20;;;3.10;;
23044;SDS011;11690;51.716;23.066;2023-08-24T06:28:14;4.20;;;3.22;;
23044;SDS011;11690;51.716;23.066;2023-08-24T06:30:41;4.20;;;3.05;;
23044;SDS011;11690;51.716;23.066;2023-08-24T06:33:10;6.47;;;3.13;;
23044;SDS011;11690;51.716;23.066;2023-08-24T06:35:38;7.13;;;3.70;;
23044;SDS011;11690;51.716;23.066;2023-08-24T06:38:05;5.50;;;2.90;;
23044;SDS011;11690;51.716;23.066;2023-08-24T06:40:32;5.28;;;3.05;;
23044;SDS011;11690;51.716;23.066;2023-08-24T06:42:59;8.05;;;3.40;;
23044;SDS011;11690;51.716;23.066;2023-08-24T06:45:27;6.88;;;3.33;;
23044;SDS011;11690;51.716;23.066;2023-08-24T06:47:54;4.35;;;2.72;;
23044;SDS011;11690;51.716;23.066;2023-08-24T06:50:21;5.63;;;3.13;;
23044;SDS011;11690;51.716;23.066;2023-08-24T06:52:48;5.97;;;3.03;;
23044;SDS011;11690;51.716;23.066;2023-08-24T06:55:15;5.03;;;3.20;;
23044;SDS011;11690;51.716;23.066;2023-08-24T06:57:47;8.93;;;3.10;;
23044;SDS011;11690;51.716;23.066;2023-08-24T07:00:15;4.10;;;2.90;;
23044;SDS011;11690;51.716;23.066;2023-08-24T07:02:43;4.45;;;2.90;;
23044;SDS011;11690;51.716;23.066;2023-08-24T07:05:10;6.50;;;3.13;;
23044;SDS011;11690;51.716;23.066;2023-08-24T07:07:39;10.07;;;3.05;;
23044;SDS011;11690;51.716;23.066;2023-08-24T07:10:10;4.75;;;2.90;;
23044;SDS011;11690;51.716;23.066;2023-08-24T07:12:37;3.92;;;2.85;;
23044;SDS011;11690;51.716;23.066;2023-08-24T07:15:07;4.90;;;2.60;;
23044;SDS011;11690;51.716;23.066;2023-08-24T07:17:35;4.50;;;2.38;;
23044;SDS011;11690;51.716;23.066;2023-08-24T07:20:03;6.78;;;2.20;;
23044;SDS011;11690;51.716;23.066;2023-08-24T07:22:35;4.63;;;2.05;;
23044;SDS011;11690;51.716;23.066;2023-08-24T07:25:02;3.10;;;1.77;;
23044;SDS011;11690;51.716;23.066;2023-08-24T07:27:32;2.88;;;1.70;;
23044;SDS011;11690;51.716;23.066;2023-08-24T07:30:01;3.38;;;1.60;;
23044;SDS011;11690;51.716;23.066;2023-08-24T07:32:48;5.82;;;1.80;;
23044;SDS011;11690;51.716;23.066;2023-08-24T07:35:15;2.35;;;1.48;;
23044;SDS011;11690;51.716;23.066;2023-08-24T07:37:43;3.92;;;1.25;;
23044;SDS011;11690;51.716;23.066;2023-08-24T07:40:10;3.17;;;2.00;;
23044;SDS011;11690;51.716;23.066;2023-08-24T07:42:45;3.03;;;1.52;;
23044;SDS011;11690;51.716;23.066;2023-08-24T07:45:13;2.33;;;1.40;;
23044;SDS011;11690;51.716;23.066;2023-08-24T07:47:41;5.18;;;1.65;;
23044;SDS011;11690;51.716;23.066;2023-08-24T07:50:08;3.03;;;1.40;;
23044;SDS011;11690;51.716;23.066;2023-08-24T07:52:37;5.93;;;1.50;;
23044;SDS011;11690;51.716;23.066;2023-08-24T07:55:05;4.82;;;1.77;;
23044;SDS011;11690;51.716;23.066;2023-08-24T07:57:34;2.42;;;1.30;;
23044;SDS011;11690;51.716;23.066;2023-08-24T08:00:02;4.45;;;1.48;;
23044;SDS011;11690;51.716;23.066;2023-08-24T08:02:41;1.83;;;1.27;;
23044;SDS011;11690;51.716;23.066;2023-08-24T08:05:08;3.20;;;1.50;;
23044;SDS011;11690;51.716;23.066;2023-08-24T08:07:37;6.38;;;1.80;;
23044;SDS011;11690;51.716;23.066;2023-08-24T08:10:05;2.15;;;1.40;;
23044;SDS011;11690;51.716;23.066;2023-08-24T08:12:33;3.40;;;1.58;;
23044;SDS011;11690;51.716;23.066;2023-08-24T08:15:01;3.03;;;1.70;;
23044;SDS011;11690;51.716;23.066;2023-08-24T08:17:29;1.95;;;1.48;;
23044;SDS011;11690;51.716;23.066;2023-08-24T08:19:57;3.35;;;1.55;;
23044;SDS011;11690;51.716;23.066;2023-08-24T08:22:25;5.60;;;1.58;;
23044;SDS011;11690;51.716;23.066;2023-08-24T08:24:52;2.80;;;1.50;;
23044;SDS011;11690;51.716;23.066;2023-08-24T08:27:23;3.13;;;1.52;;
23044;SDS011;11690;51.716;23.066;2023-08-24T08:29:50;7.13;;;1.67;;
23044;SDS011;11690;51.716;23.066;2023-08-24T08:32:18;5.00;;;1.95;;
23044;SDS011;11690;51.716;23.066;2023-08-24T08:34:45;3.47;;;1.35;;
23044;SDS011;11690;51.716;23.066;2023-08-24T08:37:12;5.85;;;1.40;;
23044;SDS011;11690;51.716;23.066;2023-08-24T08:39:39;3.60;;;1.40;;
23044;SDS011;11690;51.716;23.066;2023-08-24T08:42:10;10.10;;;1.65;;
23044;SDS011;11690;51.716;23.066;2023-08-24T08:44:39;4.88;;;1.60;;
23044;SDS011;11690;51.716;23.066;2023-08-24T08:47:09;4.82;;;1.80;;
23044;SDS011;11690;51.716;23.066;2023-08-24T08:49:43;2.47;;;1.75;;
23044;SDS011;11690;51.716;23.066;2023-08-24T08:52:12;5.20;;;1.85;;
23044;SDS011;11690;51.716;23.066;2023-08-24T08:54:39;2.25;;;1.40;;
23044;SDS011;11690;51.716;23.066;2023-08-24T08:57:07;3.80;;;1.95;;
23044;SDS011;11690;51.716;23.066;2023-08-24T08:59:34;4.13;;;1.90;;
23044;SDS011;11690;51.716;23.066;2023-08-24T09:02:02;3.33;;;1.50;;
23044;SDS011;11690;51.716;23.066;2023-08-24T09:04:33;2.28;;;1.38;;
23044;SDS011;11690;51.716;23.066;2023-08-24T09:07:00;5.53;;;1.70;;
23044;SDS011;11690;51.716;23.066;2023-08-24T09:09:32;4.43;;;1.90;;
23044;SDS011;11690;51.716;23.066;2023-08-24T09:12:00;4.90;;;2.28;;
23044;SDS011;11690;51.716;23.066;2023-08-24T09:14:27;3.90;;;1.83;;
23044;SDS011;11690;51.716;23.066;2023-08-24T09:16:55;5.68;;;1.95;;
23044;SDS011;11690;51.716;23.066;2023-08-24T09:19:28;4.22;;;1.77;;
23044;SDS011;11690;51.716;23.066;2023-08-24T09:21:57;3.85;;;1.70;;
23044;SDS011;11690;51.716;23.066;2023-08-24T09:27:14;2.63;;;1.27;;
23044;SDS011;11690;51.716;23.066;2023-08-24T09:29:51;3.60;;;1.50;;
23044;SDS011;11690;51.716;23.066;2023-08-24T09:32:29;4.13;;;1.42;;
23044;SDS011;11690;51.716;23.066;2023-08-24T09:34:56;4.18;;;1.20;;
23044;SDS011;11690;51.716;23.066;2023-08-24T09:37:35;2.40;;;1.20;;
23044;SDS011;11690;51.716;23.066;2023-08-24T09:40:03;1.75;;;1.10;;
23044;SDS011;11690;51.716;23.066;2023-08-24T09:42:39;3.97;;;1.20;;
23044;SDS011;11690;51.716;23.066;2023-08-24T09:45:12;3.22;;;1.13;;
23044;SDS011;11690;51.716;23.066;2023-08-24T09:47:45;4.65;;;1.08;;
23044;SDS011;11690;51.716;23.066;2023-08-24T09:50:19;1.42;;;0.90;;
23044;SDS011;11690;51.716;23.066;2023-08-24T09:52:47;2.20;;;1.00;;
23044;SDS011;11690;51.716;23.066;2023-08-24T09:55:18;2.75;;;1.20;;
23044;SDS011;11690;51.716;23.066;2023-08-24T09:57:48;2.75;;;1.33;;
23044;SDS011;11690;51.716;23.066;2023-08-24T10:00:18;1.33;;;1.00;;
23044;SDS011;11690;51.716;23.066;2023-08-24T10:02:50;2.10;;;1.10;;
23044;SDS011;11690;51.716;23.066;2023-08-24T10:05:22;4.20;;;1.45;;
23044;SDS011;11690;51.716;23.066;2023-08-24T10:07:53;2.58;;;1.05;;
23044;SDS011;11690;51.716;23.066;2023-08-24T10:10:23;2.67;;;1.10;;
23044;SDS011;11690;51.716;23.066;2023-08-24T10:12:53;5.18;;;1.27;;
23044;SDS011;11690;51.716;23.066;2023-08-24T10:15:23;4.50;;;1.23;;
23044;SDS011;11690;51.716;23.066;2023-08-24T10:17:51;1.52;;;1.05;;
23044;SDS011;11690;51.716;23.066;2023-08-24T10:20:19;3.85;;;0.85;;
23044;SDS011;11690;51.716;23.066;2023-08-24T10:22:47;1.58;;;0.93;;
23044;SDS011;11690;51.716;23.066;2023-08-24T10:25:16;3.13;;;1.00;;
23044;SDS011;11690;51.716;23.066;2023-08-24T10:27:44;3.35;;;1.15;;
23044;SDS011;11690;51.716;23.066;2023-08-24T10:30:13;3.78;;;1.23;;
23044;SDS011;11690;51.716;23.066;2023-08-24T10:32:41;3.08;;;1.15;;
23044;SDS011;11690;51.716;23.066;2023-08-24T10:35:10;4.78;;;1.48;;
23044;SDS011;11690;51.716;23.066;2023-08-24T10:37:40;1.55;;;0.85;;
23044;SDS011;11690;51.716;23.066;2023-08-24T10:40:07;5.25;;;1.15;;
23044;SDS011;11690;51.716;23.066;2023-08-24T10:42:45;2.65;;;1.15;;
23044;SDS011;11690;51.716;23.066;2023-08-24T10:45:13;5.97;;;1.48;;
23044;SDS011;11690;51.716;23.066;2023-08-24T10:47:44;3.70;;;1.60;;
23044;SDS011;11690;51.716;23.066;2023-08-24T10:50:14;2.83;;;1.15;;
23044;SDS011;11690;51.716;23.066;2023-08-24T10:52:45;2.83;;;1.10;;
23044;SDS011;11690;51.716;23.066;2023-08-24T10:55:23;2.22;;;0.95;;
23044;SDS011;11690;51.716;23.066;2023-08-24T10:57:58;1.05;;;0.90;;
23044;SDS011;11690;51.716;23.066;2023-08-24T11:00:27;6.13;;;1.55;;
23044;SDS011;11690;51.716;23.066;2023-08-24T11:02:55;2.50;;;1.20;;
23044;SDS011;11690;51.716;23.066;2023-08-24T11:05:27;2.25;;;1.10;;
23044;SDS011;11690;51.716;23.066;2023-08-24T11:07:58;4.38;;;0.90;;
23044;SDS011;11690;51.716;23.066;2023-08-24T11:13:10;4.00;;;1.20;;
23044;SDS011;11690;51.716;23.066;2023-08-24T11:15:42;5.75;;;1.15;;
23044;SDS011;11690;51.716;23.066;2023-08-24T11:20:43;1.23;;;1.00;;
23044;SDS011;11690;51.716;23.066;2023-08-24T11:23:12;1.92;;;1.02;;
23044;SDS011;11690;51.716;23.066;2023-08-24T11:25:39;2.60;;;1.15;;
23044;SDS011;11690;51.716;23.066;2023-08-24T11:28:07;1.70;;;1.00;;
23044;SDS011;11690;51.716;23.066;2023-08-24T11:30:34;2.05;;;1.15;;
23044;SDS011;11690;51.716;23.066;2023-08-24T11:33:02;2.88;;;1.25;;
23044;SDS011;11690;51.716;23.066;2023-08-24T11:35:34;3.90;;;1.25;;
23044;SDS011;11690;51.716;23.066;2023-08-24T11:38:03;4.57;;;1.00;;
23044;SDS011;11690;51.716;23.066;2023-08-24T11:40:31;3.25;;;1.15;;
23044;SDS011;11690;51.716;23.066;2023-08-24T11:42:58;4.05;;;1.23;;
23044;SDS011;11690;51.716;23.066;2023-08-24T11:45:30;4.07;;;1.23;;
23044;SDS011;11690;51.716;23.066;2023-08-24T11:47:59;3.50;;;1.27;;
23044;SDS011;11690;51.716;23.066;2023-08-24T11:50:32;2.80;;;1.23;;
23044;SDS011;11690;51.716;23.066;2023-08-24T11:53:00;4.32;;;1.48;;
23044;SDS011;11690;51.716;23.066;2023-08-24T11:55:29;1.63;;;1.13;;
23044;SDS011;11690;51.716;23.066;2023-08-24T11:57:56;2.58;;;1.30;;
23044;SDS011;11690;51.716;23.066;2023-08-24T12:00:23;3.60;;;0.80;;
23044;SDS011;11690;51.716;23.066;2023-08-24T12:02:51;2.17;;;1.08;;
23044;SDS011;11690;51.716;23.066;2023-08-24T12:05:22;3.45;;;1.05;;
23044;SDS011;11690;51.716;23.066;2023-08-24T12:07:53;2.95;;;0.77;;
23044;SDS011;11690;51.716;23.066;2023-08-24T12:10:21;5.10;;;1.30;;
23044;SDS011;11690;51.716;23.066;2023-08-24T12:12:48;2.92;;;1.27;;
23044;SDS011;11690;51.716;23.066;2023-08-24T12:15:19;1.77;;;1.23;;
23044;SDS011;11690;51.716;23.066;2023-08-24T12:17:47;6.97;;;1.20;;
23044;SDS011;11690;51.716;23.066;2023-08-24T12:20:21;9.90;;;1.35;;
23044;SDS011;11690;51.716;23.066;2023-08-24T12:22:50;2.28;;;1.27;;
23044;SDS011;11690;51.716;23.066;2023-08-24T12:25:22;1.63;;;1.23;;
23044;SDS011;11690;51.716;23.066;2023-08-24T12:28:08;5.30;;;1.52;;
23044;SDS011;11690;51.716;23.066;2023-08-24T12:30:44;3.88;;;1.48;;
23044;SDS011;11690;51.716;23.066;2023-08-24T12:33:25;3.15;;;1.20;;
23044;SDS011;11690;51.716;23.066;2023-08-24T12:35:53;13.07;;;3.15;;
23044;SDS011;11690;51.716;23.066;2023-08-24T12:38:22;5.22;;;1.83;;
23044;SDS011;11690;51.716;23.066;2023-08-24T12:40:51;12.60;;;3.13;;
23044;SDS011;11690;51.716;23.066;2023-08-24T12:43:19;3.00;;;1.63;;
23044;SDS011;11690;51.716;23.066;2023-08-24T12:45:46;3.50;;;1.00;;
23044;SDS011;11690;51.716;23.066;2023-08-24T12:48:13;2.95;;;1.13;;
23044;SDS011;11690;51.716;23.066;2023-08-24T12:50:40;5.50;;;1.80;;
23044;SDS011;11690;51.716;23.066;2023-08-24T12:53:08;6.05;;;1.58;;
23044;SDS011;11690;51.716;23.066;2023-08-24T12:55:35;2.83;;;1.30;;
23044;SDS011;11690;51.716;23.066;2023-08-24T12:58:05;3.95;;;1.33;;
23044;SDS011;11690;51.716;23.066;2023-08-24T13:00:32;3.90;;;1.08;;
23044;SDS011;11690;51.716;23.066;2023-08-24T13:03:00;3.67;;;1.02;;
23044;SDS011;11690;51.716;23.066;2023-08-24T13:05:27;3.35;;;1.60;;
23044;SDS011;11690;51.716;23.066;2023-08-24T13:07:54;3.53;;;1.20;;
23044;SDS011;11690;51.716;23.066;2023-08-24T13:10:22;1.83;;;1.05;;
23044;SDS011;11690;51.716;23.066;2023-08-24T13:12:50;6.70;;;1.77;;
23044;SDS011;11690;51.716;23.066;2023-08-24T13:15:17;3.33;;;1.75;;
23044;SDS011;11690;51.716;23.066;2023-08-24T13:17:44;1.80;;;0.90;;
23044;SDS011;11690;51.716;23.066;2023-08-24T13:20:11;1.27;;;1.05;;
23044;SDS011;11690;51.716;23.066;2023-08-24T13:22:38;2.50;;;1.15;;
23044;SDS011;11690;51.716;23.066;2023-08-24T13:25:06;3.80;;;1.15;;
23044;SDS011;11690;51.716;23.066;2023-08-24T13:27:33;1.17;;;0.93;;
23044;SDS011;11690;51.716;23.066;2023-08-24T13:30:00;1.27;;;1.10;;
23044;SDS011;11690;51.716;23.066;2023-08-24T13:32:28;4.30;;;1.10;;
23044;SDS011;11690;51.716;23.066;2023-08-24T13:34:55;2.10;;;1.05;;
23044;SDS011;11690;51.716;23.066;2023-08-24T13:37:23;2.70;;;1.20;;
23044;SDS011;11690;51.716;23.066;2023-08-24T13:39:52;2.67;;;0.85;;
23044;SDS011;11690;51.716;23.066;2023-08-24T13:42:20;4.57;;;1.30;;
23044;SDS011;11690;51.716;23.066;2023-08-24T13:44:47;1.73;;;1.00;;
23044;SDS011;11690;51.716;23.066;2023-08-24T13:47:14;2.63;;;1.00;;
23044;SDS011;11690;51.716;23.066;2023-08-24T13:49:41;4.00;;;1.10;;
23044;SDS011;11690;51.716;23.066;2023-08-24T13:52:09;4.90;;;1.00;;
23044;SDS011;11690;51.716;23.066;2023-08-24T13:54:36;1.98;;;1.45;;
23044;SDS011;11690;51.716;23.066;2023-08-24T13:57:03;2.38;;;1.08;;
23044;SDS011;11690;51.716;23.066;2023-08-24T13:59:31;3.85;;;1.33;;
23044;SDS011;11690;51.716;23.066;2023-08-24T14:01:59;2.90;;;1.52;;
23044;SDS011;11690;51.716;23.066;2023-08-24T14:04:26;2.00;;;1.10;;
23044;SDS011;11690;51.716;23.066;2023-08-24T14:06:53;2.83;;;1.30;;
23044;SDS011;11690;51.716;23.066;2023-08-24T14:09:20;1.17;;;1.02;;
23044;SDS011;11690;51.716;23.066;2023-08-24T14:11:48;4.38;;;1.35;;
23044;SDS011;11690;51.716;23.066;2023-08-24T14:14:15;4.78;;;1.40;;
23044;SDS011;11690;51.716;23.066;2023-08-24T14:16:42;2.35;;;1.33;;
23044;SDS011;11690;51.716;23.066;2023-08-24T14:19:10;1.80;;;1.17;;
23044;SDS011;11690;51.716;23.066;2023-08-24T14:21:37;4.47;;;1.20;;
23044;SDS011;11690;51.716;23.066;2023-08-24T14:24:11;7.18;;;1.20;;
23044;SDS011;11690;51.716;23.066;2023-08-24T14:26:38;5.55;;;1.50;;
23044;SDS011;11690;51.716;23.066;2023-08-24T14:29:12;1.75;;;1.20;;
23044;SDS011;11690;51.716;23.066;2023-08-24T14:31:40;1.75;;;1.30;;
23044;SDS011;11690;51.716;23.066;2023-08-24T14:34:08;1.63;;;1.10;;
23044;SDS011;11690;51.716;23.066;2023-08-24T14:36:35;2.53;;;0.90;;
23044;SDS011;11690;51.716;23.066;2023-08-24T14:39:02;4.43;;;1.45;;
23044;SDS011;11690;51.716;23.066;2023-08-24T14:41:30;2.00;;;1.10;;
23044;SDS011;11690;51.716;23.066;2023-08-24T14:43:59;2.05;;;1.40;;
23044;SDS011;11690;51.716;23.066;2023-08-24T14:46:26;3.75;;;1.48;;
23044;SDS011;11690;51.716;23.066;2023-08-24T14:48:53;3.30;;;1.17;;
23044;SDS011;11690;51.716;23.066;2023-08-24T14:51:21;2.50;;;0.98;;
23044;SDS011;11690;51.716;23.066;2023-08-24T14:53:48;4.38;;;1.40;;
23044;SDS011;11690;51.716;23.066;2023-08-24T14:56:15;2.08;;;1.13;;
23044;SDS011;11690;51.716;23.066;2023-08-24T14:58:42;1.88;;;1.27;;